sensor_id;sensor_type;location;lat;lon;timestamp;temperature;humidity
44069;DHT22;29738;51.234;5.484;2023-04-03T00:01:38;2.00;99.90
44069;DHT22;29738;51.234;5.484;2023-04-03T00:04:05;1.90;99.90
44069;DHT22;29738;51.234;5.484;2023-04-03T00:06:32;1.90;99.90
44069;DHT22;29738;51.234;5.484;2023-04-03T00:08:58;1.90;99.90
44069;DHT22;29738;51.234;5.484;2023-04-03T00:11:24;2.00;99.90
44069;DHT22;29738;51.234;5.484;2023-04-03T00:13:51;2.10;99.90
44069;DHT22;29738;51.234;5.484;2023-04-03T00:16:17;2.10;99.90
44069;DHT22;29738;51.234;5.484;2023-04-03T00:18:43;2.00;99.90
44069;DHT22;29738;51.234;5.484;2023-04-03T00:21:12;1.90;99.90
44069;DHT22;29738;51.234;5.484;2023-04-03T00:23:38;1.80;99.90
44069;DHT22;29738;51.234;5.484;2023-04-03T00:26:04;1.80;99.90
44069;DHT22;29738;51.234;5.484;2023-04-03T00:28:30;1.60;99.90
44069;DHT22;29738;51.234;5.484;2023-04-03T00:30:56;1.50;99.90
44069;DHT22;29738;51.234;5.484;2023-04-03T00:33:22;1.60;99.90
44069;DHT22;29738;51.234;5.484;2023-04-03T00:35:50;1.80;99.90
44069;DHT22;29738;51.234;5.484;2023-04-03T00:38:16;2.00;99.90
44069;DHT22;29738;51.234;5.484;2023-04-03T00:40:44;2.00;99.90
44069;DHT22;29738;51.234;5.484;2023-04-03T00:43:15;2.20;99.90
44069;DHT22;29738;51.234;5.484;2023-04-03T00:45:44;2.30;99.90
44069;DHT22;29738;51.234;5.484;2023-04-03T00:48:15;2.30;99.90
44069;DHT22;29738;51.234;5.484;2023-04-03T00:50:43;2.30;99.90
44069;DHT22;29738;51.234;5.484;2023-04-03T00:53:14;2.40;99.90
44069;DHT22;29738;51.234;5.484;2023-04-03T00:55:43;2.60;99.90
44069;DHT22;29738;51.234;5.484;2023-04-03T00:58:09;2.50;99.90
44069;DHT22;29738;51.234;5.484;2023-04-03T01:00:40;2.70;99.90
44069;DHT22;29738;51.234;5.484;2023-04-03T01:03:08;2.80;99.90
44069;DHT22;29738;51.234;5.484;2023-04-03T01:05:34;2.50;99.90
44069;DHT22;29738;51.234;5.484;2023-04-03T01:08:00;2.40;99.90
44069;DHT22;29738;51.234;5.484;2023-04-03T01:10:26;2.40;99.90
44069;DHT22;29738;51.234;5.484;2023-04-03T01:12:53;2.40;99.90
44069;DHT22;29738;51.234;5.484;2023-04-03T01:15:24;2.40;99.90
44069;DHT22;29738;51.234;5.484;2023-04-03T01:17:58;2.30;99.90
44069;DHT22;29738;51.234;5.484;2023-04-03T01:23:12;2.30;99.90
44069;DHT22;29738;51.234;5.484;2023-04-03T01:25:43;2.30;99.90
44069;DHT22;29738;51.234;5.484;2023-04-03T01:28:21;2.10;99.90
44069;DHT22;29738;51.234;5.484;2023-04-03T01:31:22;2.10;99.90
44069;DHT22;29738;51.234;5.484;2023-04-03T01:33:50;1.80;99.90
44069;DHT22;29738;51.234;5.484;2023-04-03T01:36:23;1.50;99.90
44069;DHT22;29738;51.234;5.484;2023-04-03T01:38:50;1.30;99.90
44069;DHT22;29738;51.234;5.484;2023-04-03T01:41:17;1.20;99.90
44069;DHT22;29738;51.234;5.484;2023-04-03T01:43:43;1.10;99.90
44069;DHT22;29738;51.234;5.484;2023-04-03T01:46:09;1.10;99.90
44069;DHT22;29738;51.234;5.484;2023-04-03T01:48:35;1.20;99.90
44069;DHT22;29738;51.234;5.484;2023-04-03T01:51:02;1.30;99.90
44069;DHT22;29738;51.234;5.484;2023-04-03T01:53:28;1.20;99.90
44069;DHT22;29738;51.234;5.484;2023-04-03T01:55:54;1.00;99.90
44069;DHT22;29738;51.234;5.484;2023-04-03T01:58:20;0.80;99.90
44069;DHT22;29738;51.234;5.484;2023-04-03T02:00:46;0.60;99.90
44069;DHT22;29738;51.234;5.484;2023-04-03T02:03:12;0.60;99.90
44069;DHT22;29738;51.234;5.484;2023-04-03T02:05:38;0.80;99.90
44069;DHT22;29738;51.234;5.484;2023-04-03T02:08:04;1.10;99.90
44069;DHT22;29738;51.234;5.484;2023-04-03T02:10:30;1.10;99.90
44069;DHT22;29738;51.234;5.484;2023-04-03T02:12:56;1.00;99.90
44069;DHT22;29738;51.234;5.484;2023-04-03T02:15:22;0.90;99.90
44069;DHT22;29738;51.234;5.484;2023-04-03T02:17:48;0.80;99.90
44069;DHT22;29738;51.234;5.484;2023-04-03T02:20:14;0.80;99.90
44069;DHT22;29738;51.234;5.484;2023-04-03T02:22:40;1.00;99.90
44069;DHT22;29738;51.234;5.484;2023-04-03T02:25:06;1.20;99.90
44069;DHT22;29738;51.234;5.484;2023-04-03T02:27:32;1.20;99.90
44069;DHT22;29738;51.234;5.484;2023-04-03T02:29:58;1.20;99.90
44069;DHT22;29738;51.234;5.484;2023-04-03T02:32:24;1.20;99.90
44069;DHT22;29738;51.234;5.484;2023-04-03T02:34:50;1.30;99.90
44069;DHT22;29738;51.234;5.484;2023-04-03T02:37:16;1.30;99.90
44069;DHT22;29738;51.234;5.484;2023-04-03T02:39:41;1.20;99.90
44069;DHT22;29738;51.234;5.484;2023-04-03T02:42:07;1.10;99.90
44069;DHT22;29738;51.234;5.484;2023-04-03T02:44:33;1.10;99.90
44069;DHT22;29738;51.234;5.484;2023-04-03T02:46:59;1.10;99.90
44069;DHT22;29738;51.234;5.484;2023-04-03T02:49:25;1.30;99.90
44069;DHT22;29738;51.234;5.484;2023-04-03T02:51:51;1.30;99.90
44069;DHT22;29738;51.234;5.484;2023-04-03T02:54:18;1.40;99.90
44069;DHT22;29738;51.234;5.484;2023-04-03T02:56:43;1.40;99.90
44069;DHT22;29738;51.234;5.484;2023-04-03T02:59:09;1.50;99.90
44069;DHT22;29738;51.234;5.484;2023-04-03T03:01:35;1.60;99.90
44069;DHT22;29738;51.234;5.484;2023-04-03T03:04:01;1.70;99.90
44069;DHT22;29738;51.234;5.484;2023-04-03T03:06:27;1.50;99.90
44069;DHT22;29738;51.234;5.484;2023-04-03T03:08:53;1.40;99.90
44069;DHT22;29738;51.234;5.484;2023-04-03T03:11:19;1.30;99.90
44069;DHT22;29738;51.234;5.484;2023-04-03T03:13:45;1.40;99.90
44069;DHT22;29738;51.234;5.484;2023-04-03T03:16:11;1.40;99.90
44069;DHT22;29738;51.234;5.484;2023-04-03T03:18:37;1.30;99.90
44069;DHT22;29738;51.234;5.484;2023-04-03T03:21:03;1.10;99.90
44069;DHT22;29738;51.234;5.484;2023-04-03T03:23:31;1.00;99.90
44069;DHT22;29738;51.234;5.484;2023-04-03T03:26:01;0.90;99.90
44069;DHT22;29738;51.234;5.484;2023-04-03T03:28:27;0.90;99.90
44069;DHT22;29738;51.234;5.484;2023-04-03T03:30:53;0.90;99.90
44069;DHT22;29738;51.234;5.484;2023-04-03T03:33:19;1.00;99.90
44069;DHT22;29738;51.234;5.484;2023-04-03T03:35:45;0.90;99.90
44069;DHT22;29738;51.234;5.484;2023-04-03T03:38:12;0.80;99.90
44069;DHT22;29738;51.234;5.484;2023-04-03T03:40:38;0.70;99.90
44069;DHT22;29738;51.234;5.484;2023-04-03T03:43:04;0.50;99.90
44069;DHT22;29738;51.234;5.484;2023-04-03T03:45:30;0.50;99.90
44069;DHT22;29738;51.234;5.484;2023-04-03T03:47:56;0.40;99.90
44069;DHT22;29738;51.234;5.484;2023-04-03T03:50:22;0.40;99.90
44069;DHT22;29738;51.234;5.484;2023-04-03T03:52:48;0.30;99.90
44069;DHT22;29738;51.234;5.484;2023-04-03T03:55:14;0.20;99.90
44069;DHT22;29738;51.234;5.484;2023-04-03T03:57:40;0.20;99.90
44069;DHT22;29738;51.234;5.484;2023-04-03T04:00:07;0.20;99.90
44069;DHT22;29738;51.234;5.484;2023-04-03T04:02:34;0.20;99.90
44069;DHT22;29738;51.234;5.484;2023-04-03T04:05:00;0.20;99.90
44069;DHT22;29738;51.234;5.484;2023-04-03T04:07:26;0.10;99.90
44069;DHT22;29738;51.234;5.484;2023-04-03T04:09:53;0.20;99.90
44069;DHT22;29738;51.234;5.484;2023-04-03T04:12:19;0.20;99.90
44069;DHT22;29738;51.234;5.484;2023-04-03T04:14:46;0.10;99.90
44069;DHT22;29738;51.234;5.484;2023-04-03T04:17:13;0.20;99.90
44069;DHT22;29738;51.234;5.484;2023-04-03T04:19:39;0.20;99.90
44069;DHT22;29738;51.234;5.484;2023-04-03T04:22:04;0.20;99.90
44069;DHT22;29738;51.234;5.484;2023-04-03T04:24:30;0.30;99.90
44069;DHT22;29738;51.234;5.484;2023-04-03T04:26:56;0.20;99.90
44069;DHT22;29738;51.234;5.484;2023-04-03T04:29:22;0.20;99.90
44069;DHT22;29738;51.234;5.484;2023-04-03T04:31:48;0.30;99.90
44069;DHT22;29738;51.234;5.484;2023-04-03T04:34:15;0.20;99.90
44069;DHT22;29738;51.234;5.484;2023-04-03T04:36:41;0.20;99.90
44069;DHT22;29738;51.234;5.484;2023-04-03T04:39:07;0.20;99.90
44069;DHT22;29738;51.234;5.484;2023-04-03T04:41:33;0.20;99.90
44069;DHT22;29738;51.234;5.484;2023-04-03T04:44:00;0.10;99.90
44069;DHT22;29738;51.234;5.484;2023-04-03T04:46:26;0.20;99.90
44069;DHT22;29738;51.234;5.484;2023-04-03T04:48:52;0.20;99.90
44069;DHT22;29738;51.234;5.484;2023-04-03T04:51:18;0.20;99.90
44069;DHT22;29738;51.234;5.484;2023-04-03T04:53:44;0.20;99.90
44069;DHT22;29738;51.234;5.484;2023-04-03T04:56:10;0.20;99.90
44069;DHT22;29738;51.234;5.484;2023-04-03T04:58:36;0.20;99.90
44069;DHT22;29738;51.234;5.484;2023-04-03T05:01:04;0.20;99.90
44069;DHT22;29738;51.234;5.484;2023-04-03T05:03:31;0.10;99.90
44069;DHT22;29738;51.234;5.484;2023-04-03T05:05:56;0.20;99.90
44069;DHT22;29738;51.234;5.484;2023-04-03T05:08:22;0.00;99.90
44069;DHT22;29738;51.234;5.484;2023-04-03T05:10:48;0.00;99.90
44069;DHT22;29738;51.234;5.484;2023-04-03T05:13:15;-0.10;99.90
44069;DHT22;29738;51.234;5.484;2023-04-03T05:15:41;0.10;99.90
44069;DHT22;29738;51.234;5.484;2023-04-03T05:18:07;0.10;99.90
44069;DHT22;29738;51.234;5.484;2023-04-03T05:20:33;0.10;99.90
44069;DHT22;29738;51.234;5.484;2023-04-03T05:22:59;0.10;99.90
44069;DHT22;29738;51.234;5.484;2023-04-03T05:25:25;0.20;99.90
44069;DHT22;29738;51.234;5.484;2023-04-03T05:27:51;0.20;99.90
44069;DHT22;29738;51.234;5.484;2023-04-03T05:30:18;0.10;99.90
44069;DHT22;29738;51.234;5.484;2023-04-03T05:32:44;0.10;99.90
44069;DHT22;29738;51.234;5.484;2023-04-03T05:35:10;0.20;99.90
44069;DHT22;29738;51.234;5.484;2023-04-03T05:37:36;0.10;99.90
44069;DHT22;29738;51.234;5.484;2023-04-03T05:40:04;0.30;99.90
44069;DHT22;29738;51.234;5.484;2023-04-03T05:42:30;0.30;99.90
44069;DHT22;29738;51.234;5.484;2023-04-03T05:44:56;0.40;99.90
44069;DHT22;29738;51.234;5.484;2023-04-03T05:47:22;0.40;99.90
44069;DHT22;29738;51.234;5.484;2023-04-03T05:49:48;0.40;99.90
44069;DHT22;29738;51.234;5.484;2023-04-03T05:54:47;0.50;99.90
44069;DHT22;29738;51.234;5.484;2023-04-03T05:57:14;0.50;99.90
44069;DHT22;29738;51.234;5.484;2023-04-03T05:59:42;0.60;99.90
44069;DHT22;29738;51.234;5.484;2023-04-03T06:02:20;0.60;99.90
44069;DHT22;29738;51.234;5.484;2023-04-03T06:04:47;0.60;99.90
44069;DHT22;29738;51.234;5.484;2023-04-03T06:07:22;0.60;99.90
44069;DHT22;29738;51.234;5.484;2023-04-03T06:09:50;0.80;99.90
44069;DHT22;29738;51.234;5.484;2023-04-03T06:12:19;0.80;99.90
44069;DHT22;29738;51.234;5.484;2023-04-03T06:14:46;0.90;99.90
44069;DHT22;29738;51.234;5.484;2023-04-03T06:17:12;0.80;99.90
44069;DHT22;29738;51.234;5.484;2023-04-03T06:19:38;0.90;99.90
44069;DHT22;29738;51.234;5.484;2023-04-03T06:22:05;1.10;99.90
44069;DHT22;29738;51.234;5.484;2023-04-03T06:24:31;1.20;99.90
44069;DHT22;29738;51.234;5.484;2023-04-03T06:26:58;1.20;99.90
44069;DHT22;29738;51.234;5.484;2023-04-03T06:29:24;1.20;99.90
44069;DHT22;29738;51.234;5.484;2023-04-03T06:31:51;1.30;99.90
44069;DHT22;29738;51.234;5.484;2023-04-03T06:34:17;1.30;99.90
44069;DHT22;29738;51.234;5.484;2023-04-03T06:36:44;1.50;99.90
44069;DHT22;29738;51.234;5.484;2023-04-03T06:39:15;1.50;99.90
44069;DHT22;29738;51.234;5.484;2023-04-03T06:41:42;1.60;99.90
44069;DHT22;29738;51.234;5.484;2023-04-03T06:44:08;1.60;99.90
44069;DHT22;29738;51.234;5.484;2023-04-03T06:46:37;1.60;99.90
44069;DHT22;29738;51.234;5.484;2023-04-03T06:49:04;1.70;99.90
44069;DHT22;29738;51.234;5.484;2023-04-03T06:51:33;1.80;99.90
44069;DHT22;29738;51.234;5.484;2023-04-03T06:53:59;1.80;99.90
44069;DHT22;29738;51.234;5.484;2023-04-03T06:56:26;1.90;99.90
44069;DHT22;29738;51.234;5.484;2023-04-03T06:58:53;2.00;99.90
44069;DHT22;29738;51.234;5.484;2023-04-03T07:01:20;2.10;99.90
44069;DHT22;29738;51.234;5.484;2023-04-03T07:03:48;2.20;99.90
44069;DHT22;29738;51.234;5.484;2023-04-03T07:06:15;2.10;99.90
44069;DHT22;29738;51.234;5.484;2023-04-03T07:08:42;2.40;99.90
44069;DHT22;29738;51.234;5.484;2023-04-03T07:11:09;2.40;99.90
44069;DHT22;29738;51.234;5.484;2023-04-03T07:13:35;2.50;99.90
44069;DHT22;29738;51.234;5.484;2023-04-03T07:16:02;2.60;99.90
44069;DHT22;29738;51.234;5.484;2023-04-03T07:18:29;2.70;99.90
44069;DHT22;29738;51.234;5.484;2023-04-03T07:20:55;2.80;99.90
44069;DHT22;29738;51.234;5.484;2023-04-03T07:23:21;2.80;99.90
44069;DHT22;29738;51.234;5.484;2023-04-03T07:25:49;2.90;99.90
44069;DHT22;29738;51.234;5.484;2023-04-03T07:28:16;2.90;99.90
44069;DHT22;29738;51.234;5.484;2023-04-03T07:30:47;3.10;99.90
44069;DHT22;29738;51.234;5.484;2023-04-03T07:33:15;3.20;99.90
44069;DHT22;29738;51.234;5.484;2023-04-03T07:35:42;3.20;99.90
44069;DHT22;29738;51.234;5.484;2023-04-03T07:38:09;3.20;99.90
44069;DHT22;29738;51.234;5.484;2023-04-03T07:40:35;3.30;99.90
44069;DHT22;29738;51.234;5.484;2023-04-03T07:43:01;3.40;99.90
44069;DHT22;29738;51.234;5.484;2023-04-03T07:45:28;3.40;99.90
44069;DHT22;29738;51.234;5.484;2023-04-03T07:47:54;3.50;99.90
44069;DHT22;29738;51.234;5.484;2023-04-03T07:50:20;3.60;99.90
44069;DHT22;29738;51.234;5.484;2023-04-03T07:52:47;3.60;99.90
44069;DHT22;29738;51.234;5.484;2023-04-03T07:55:12;3.60;99.90
44069;DHT22;29738;51.234;5.484;2023-04-03T07:57:38;3.70;99.90
44069;DHT22;29738;51.234;5.484;2023-04-03T08:00:06;3.80;99.90
44069;DHT22;29738;51.234;5.484;2023-04-03T08:02:33;3.80;99.90
44069;DHT22;29738;51.234;5.484;2023-04-03T08:04:58;3.80;99.90
44069;DHT22;29738;51.234;5.484;2023-04-03T08:07:25;3.90;99.90
44069;DHT22;29738;51.234;5.484;2023-04-03T08:09:51;4.10;99.90
44069;DHT22;29738;51.234;5.484;2023-04-03T08:12:17;4.10;99.90
44069;DHT22;29738;51.234;5.484;2023-04-03T08:14:43;4.10;99.90
44069;DHT22;29738;51.234;5.484;2023-04-03T08:17:10;4.20;99.90
44069;DHT22;29738;51.234;5.484;2023-04-03T08:19:40;4.20;99.90
44069;DHT22;29738;51.234;5.484;2023-04-03T08:22:06;4.30;99.90
44069;DHT22;29738;51.234;5.484;2023-04-03T08:24:35;4.30;99.90
44069;DHT22;29738;51.234;5.484;2023-04-03T08:27:01;4.40;99.90
44069;DHT22;29738;51.234;5.484;2023-04-03T08:29:27;4.50;99.90
44069;DHT22;29738;51.234;5.484;2023-04-03T08:31:53;4.70;99.90
44069;DHT22;29738;51.234;5.484;2023-04-03T08:34:20;4.80;99.90
44069;DHT22;29738;51.234;5.484;2023-04-03T08:36:46;4.80;99.90
44069;DHT22;29738;51.234;5.484;2023-04-03T08:39:13;4.70;99.90
44069;DHT22;29738;51.234;5.484;2023-04-03T08:41:42;4.90;99.90
44069;DHT22;29738;51.234;5.484;2023-04-03T08:47:04;5.30;99.90
44069;DHT22;29738;51.234;5.484;2023-04-03T08:49:44;5.30;99.90
44069;DHT22;29738;51.234;5.484;2023-04-03T08:52:19;5.20;99.90
44069;DHT22;29738;51.234;5.484;2023-04-03T08:54:54;5.20;99.90
44069;DHT22;29738;51.234;5.484;2023-04-03T08:58:03;5.20;99.90
44069;DHT22;29738;51.234;5.484;2023-04-03T09:00:24;5.30;99.90
44069;DHT22;29738;51.234;5.484;2023-04-03T09:02:53;5.30;99.90
44069;DHT22;29738;51.234;5.484;2023-04-03T09:05:45;5.30;99.90
44069;DHT22;29738;51.234;5.484;2023-04-03T09:08:21;5.40;99.90
44069;DHT22;29738;51.234;5.484;2023-04-03T09:10:50;5.20;99.90
44069;DHT22;29738;51.234;5.484;2023-04-03T09:13:30;5.40;99.90
44069;DHT22;29738;51.234;5.484;2023-04-03T09:15:57;5.40;99.90
44069;DHT22;29738;51.234;5.484;2023-04-03T09:18:28;5.50;99.90
44069;DHT22;29738;51.234;5.484;2023-04-03T09:23:52;5.80;99.90
44069;DHT22;29738;51.234;5.484;2023-04-03T09:26:30;5.80;99.90
44069;DHT22;29738;51.234;5.484;2023-04-03T09:29:02;5.80;99.90
44069;DHT22;29738;51.234;5.484;2023-04-03T09:31:37;5.90;99.90
44069;DHT22;29738;51.234;5.484;2023-04-03T09:34:08;6.00;99.90
44069;DHT22;29738;51.234;5.484;2023-04-03T09:36:43;6.10;99.90
44069;DHT22;29738;51.234;5.484;2023-04-03T09:39:11;6.00;99.90
44069;DHT22;29738;51.234;5.484;2023-04-03T09:41:37;6.30;99.90
44069;DHT22;29738;51.234;5.484;2023-04-03T09:44:04;6.00;99.90
44069;DHT22;29738;51.234;5.484;2023-04-03T09:46:43;6.10;99.90
44069;DHT22;29738;51.234;5.484;2023-04-03T09:49:09;6.30;99.90
44069;DHT22;29738;51.234;5.484;2023-04-03T09:51:36;6.10;99.90
44069;DHT22;29738;51.234;5.484;2023-04-03T09:54:23;6.20;99.90
44069;DHT22;29738;51.234;5.484;2023-04-03T09:56:51;6.40;99.90
44069;DHT22;29738;51.234;5.484;2023-04-03T09:59:17;6.30;99.90
44069;DHT22;29738;51.234;5.484;2023-04-03T10:01:55;6.30;99.90
44069;DHT22;29738;51.234;5.484;2023-04-03T10:04:22;6.40;99.90
44069;DHT22;29738;51.234;5.484;2023-04-03T10:06:50;6.40;99.90
44069;DHT22;29738;51.234;5.484;2023-04-03T10:09:23;6.60;99.90
44069;DHT22;29738;51.234;5.484;2023-04-03T10:12:00;6.40;99.90
44069;DHT22;29738;51.234;5.484;2023-04-03T10:14:26;6.40;99.90
44069;DHT22;29738;51.234;5.484;2023-04-03T10:16:56;6.60;99.90
44069;DHT22;29738;51.234;5.484;2023-04-03T10:19:29;6.60;99.90
44069;DHT22;29738;51.234;5.484;2023-04-03T10:27:13;6.60;99.90
44069;DHT22;29738;51.234;5.484;2023-04-03T10:35:06;6.70;99.90
44069;DHT22;29738;51.234;5.484;2023-04-03T10:40:29;6.80;99.90
44069;DHT22;29738;51.234;5.484;2023-04-03T10:48:30;7.10;99.90
44069;DHT22;29738;51.234;5.484;2023-04-03T10:53:37;6.90;99.90
44069;DHT22;29738;51.234;5.484;2023-04-03T10:56:08;7.00;99.90
44069;DHT22;29738;51.234;5.484;2023-04-03T10:58:39;6.80;99.90
44069;DHT22;29738;51.234;5.484;2023-04-03T11:01:07;6.80;99.90
44069;DHT22;29738;51.234;5.484;2023-04-03T11:03:35;7.10;99.90
44069;DHT22;29738;51.234;5.484;2023-04-03T11:06:04;7.20;99.90
44069;DHT22;29738;51.234;5.484;2023-04-03T11:08:38;7.10;99.90
44069;DHT22;29738;51.234;5.484;2023-04-03T11:11:07;7.20;99.90
44069;DHT22;29738;51.234;5.484;2023-04-03T11:13:38;7.20;99.90
44069;DHT22;29738;51.234;5.484;2023-04-03T11:16:06;7.40;99.90
44069;DHT22;29738;51.234;5.484;2023-04-03T11:18:37;7.50;99.90
44069;DHT22;29738;51.234;5.484;2023-04-03T11:23:49;7.50;99.90
44069;DHT22;29738;51.234;5.484;2023-04-03T11:26:17;7.30;99.90
44069;DHT22;29738;51.234;5.484;2023-04-03T11:28:44;7.30;99.90
44069;DHT22;29738;51.234;5.484;2023-04-03T11:31:23;7.40;99.90
44069;DHT22;29738;51.234;5.484;2023-04-03T11:38:43;7.80;99.90
44069;DHT22;29738;51.234;5.484;2023-04-03T11:41:11;7.60;99.90
44069;DHT22;29738;51.234;5.484;2023-04-03T11:43:43;7.70;99.00
44069;DHT22;29738;51.234;5.484;2023-04-03T11:46:21;7.80;98.60
44069;DHT22;29738;51.234;5.484;2023-04-03T11:48:48;7.80;98.90
44069;DHT22;29738;51.234;5.484;2023-04-03T11:53:43;7.80;97.30
44069;DHT22;29738;51.234;5.484;2023-04-03T12:04:21;8.10;95.80
44069;DHT22;29738;51.234;5.484;2023-04-03T12:11:54;8.20;94.60
44069;DHT22;29738;51.234;5.484;2023-04-03T12:14:22;8.20;94.60
44069;DHT22;29738;51.234;5.484;2023-04-03T12:16:48;8.00;93.10
44069;DHT22;29738;51.234;5.484;2023-04-03T12:37:15;8.10;94.20
44069;DHT22;29738;51.234;5.484;2023-04-03T12:39:48;8.20;93.10
44069;DHT22;29738;51.234;5.484;2023-04-03T12:47:16;8.30;94.60
44069;DHT22;29738;51.234;5.484;2023-04-03T12:49:45;8.40;92.50
44069;DHT22;29738;51.234;5.484;2023-04-03T12:52:21;8.50;94.00
44069;DHT22;29738;51.234;5.484;2023-04-03T12:54:50;8.70;92.40
44069;DHT22;29738;51.234;5.484;2023-04-03T12:57:26;8.50;92.90
44069;DHT22;29738;51.234;5.484;2023-04-03T12:59:53;8.50;95.40
44069;DHT22;29738;51.234;5.484;2023-04-03T13:04:53;8.70;94.50
44069;DHT22;29738;51.234;5.484;2023-04-03T13:07:27;8.60;93.90
44069;DHT22;29738;51.234;5.484;2023-04-03T13:10:38;9.00;94.00
44069;DHT22;29738;51.234;5.484;2023-04-03T13:12:47;8.90;95.10
44069;DHT22;29738;51.234;5.484;2023-04-03T13:15:15;8.60;93.60
44069;DHT22;29738;51.234;5.484;2023-04-03T13:17:41;8.60;95.90
44069;DHT22;29738;51.234;5.484;2023-04-03T13:20:18;8.70;94.60
44069;DHT22;29738;51.234;5.484;2023-04-03T13:22:47;8.80;92.70
44069;DHT22;29738;51.234;5.484;2023-04-03T13:25:13;8.80;94.40
44069;DHT22;29738;51.234;5.484;2023-04-03T13:27:40;8.80;94.10
44069;DHT22;29738;51.234;5.484;2023-04-03T13:32:45;8.80;95.10
44069;DHT22;29738;51.234;5.484;2023-04-03T13:37:56;8.70;94.10
44069;DHT22;29738;51.234;5.484;2023-04-03T13:40:23;8.80;94.10
44069;DHT22;29738;51.234;5.484;2023-04-03T13:43:16;9.10;92.60
44069;DHT22;29738;51.234;5.484;2023-04-03T13:45:35;8.90;93.80
44069;DHT22;29738;51.234;5.484;2023-04-03T13:48:17;8.90;94.40
44069;DHT22;29738;51.234;5.484;2023-04-03T13:51:04;8.80;92.60
44069;DHT22;29738;51.234;5.484;2023-04-03T13:53:31;9.00;94.60
44069;DHT22;29738;51.234;5.484;2023-04-03T13:55:59;9.10;93.10
44069;DHT22;29738;51.234;5.484;2023-04-03T13:58:27;9.10;94.60
44069;DHT22;29738;51.234;5.484;2023-04-03T14:03:32;9.10;94.60
44069;DHT22;29738;51.234;5.484;2023-04-03T14:05:59;9.00;92.60
44069;DHT22;29738;51.234;5.484;2023-04-03T14:08:26;9.00;93.80
44069;DHT22;29738;51.234;5.484;2023-04-03T14:10:52;9.00;93.90
44069;DHT22;29738;51.234;5.484;2023-04-03T14:13:19;9.00;93.90
44069;DHT22;29738;51.234;5.484;2023-04-03T14:15:46;9.10;94.30
44069;DHT22;29738;51.234;5.484;2023-04-03T14:18:15;8.90;93.60
44069;DHT22;29738;51.234;5.484;2023-04-03T14:20:41;9.00;93.90
44069;DHT22;29738;51.234;5.484;2023-04-03T14:23:08;9.10;94.60
44069;DHT22;29738;51.234;5.484;2023-04-03T14:25:34;9.20;96.10
44069;DHT22;29738;51.234;5.484;2023-04-03T14:28:00;9.30;94.80
44069;DHT22;29738;51.234;5.484;2023-04-03T14:30:27;9.30;95.40
44069;DHT22;29738;51.234;5.484;2023-04-03T14:32:53;9.20;94.70
44069;DHT22;29738;51.234;5.484;2023-04-03T14:35:19;9.00;93.90
44069;DHT22;29738;51.234;5.484;2023-04-03T14:37:45;9.00;94.80
44069;DHT22;29738;51.234;5.484;2023-04-03T14:40:13;9.10;97.00
44069;DHT22;29738;51.234;5.484;2023-04-03T14:42:39;9.00;96.40
44069;DHT22;29738;51.234;5.484;2023-04-03T14:45:06;9.00;94.70
44069;DHT22;29738;51.234;5.484;2023-04-03T14:47:32;9.20;96.60
44069;DHT22;29738;51.234;5.484;2023-04-03T14:50:01;9.10;94.90
44069;DHT22;29738;51.234;5.484;2023-04-03T14:52:28;8.90;95.00
44069;DHT22;29738;51.234;5.484;2023-04-03T14:54:55;8.90;96.40
44069;DHT22;29738;51.234;5.484;2023-04-03T14:57:23;9.10;95.20
44069;DHT22;29738;51.234;5.484;2023-04-03T14:59:49;8.90;95.50
44069;DHT22;29738;51.234;5.484;2023-04-03T15:02:33;9.10;97.70
44069;DHT22;29738;51.234;5.484;2023-04-03T15:04:59;9.20;97.60
44069;DHT22;29738;51.234;5.484;2023-04-03T15:07:27;9.10;96.20
44069;DHT22;29738;51.234;5.484;2023-04-03T15:09:53;9.10;95.70
44069;DHT22;29738;51.234;5.484;2023-04-03T15:12:22;9.00;95.30
44069;DHT22;29738;51.234;5.484;2023-04-03T15:14:48;9.10;97.30
44069;DHT22;29738;51.234;5.484;2023-04-03T15:17:15;9.00;96.40
44069;DHT22;29738;51.234;5.484;2023-04-03T15:19:41;9.00;93.80
44069;DHT22;29738;51.234;5.484;2023-04-03T15:22:08;9.10;94.80
44069;DHT22;29738;51.234;5.484;2023-04-03T15:24:35;9.20;95.20
44069;DHT22;29738;51.234;5.484;2023-04-03T15:27:00;9.10;94.40
44069;DHT22;29738;51.234;5.484;2023-04-03T15:29:26;9.00;94.90
44069;DHT22;29738;51.234;5.484;2023-04-03T15:31:52;9.10;94.50
44069;DHT22;29738;51.234;5.484;2023-04-03T15:34:18;9.10;94.50
44069;DHT22;29738;51.234;5.484;2023-04-03T15:36:44;9.20;95.80
44069;DHT22;29738;51.234;5.484;2023-04-03T15:39:10;9.50;96.00
44069;DHT22;29738;51.234;5.484;2023-04-03T15:41:36;9.30;94.80
44069;DHT22;29738;51.234;5.484;2023-04-03T15:44:02;9.10;94.60
44069;DHT22;29738;51.234;5.484;2023-04-03T15:46:28;9.10;93.90
44069;DHT22;29738;51.234;5.484;2023-04-03T15:48:53;9.10;96.40
44069;DHT22;29738;51.234;5.484;2023-04-03T15:51:19;9.20;94.60
44069;DHT22;29738;51.234;5.484;2023-04-03T15:53:45;9.10;95.50
44069;DHT22;29738;51.234;5.484;2023-04-03T15:56:11;9.10;94.00
44069;DHT22;29738;51.234;5.484;2023-04-03T15:58:37;9.10;94.60
44069;DHT22;29738;51.234;5.484;2023-04-03T16:01:03;9.00;94.00
44069;DHT22;29738;51.234;5.484;2023-04-03T16:03:28;8.90;94.50
44069;DHT22;29738;51.234;5.484;2023-04-03T16:05:55;9.10;94.30
44069;DHT22;29738;51.234;5.484;2023-04-03T16:08:21;9.10;95.60
44069;DHT22;29738;51.234;5.484;2023-04-03T16:10:47;8.90;94.70
44069;DHT22;29738;51.234;5.484;2023-04-03T16:13:13;8.80;95.10
44069;DHT22;29738;51.234;5.484;2023-04-03T16:15:39;8.90;94.80
44069;DHT22;29738;51.234;5.484;2023-04-03T16:18:05;8.90;96.20
44069;DHT22;29738;51.234;5.484;2023-04-03T16:20:31;8.90;95.90
44069;DHT22;29738;51.234;5.484;2023-04-03T16:22:57;8.70;94.80
44069;DHT22;29738;51.234;5.484;2023-04-03T16:25:24;8.80;96.00
44069;DHT22;29738;51.234;5.484;2023-04-03T16:27:50;8.80;96.90
44069;DHT22;29738;51.234;5.484;2023-04-03T16:30:16;8.80;96.90
44069;DHT22;29738;51.234;5.484;2023-04-03T16:32:41;8.70;96.50
44069;DHT22;29738;51.234;5.484;2023-04-03T16:35:07;8.60;95.90
44069;DHT22;29738;51.234;5.484;2023-04-03T16:37:35;8.50;96.40
44069;DHT22;29738;51.234;5.484;2023-04-03T16:40:02;8.70;95.50
44069;DHT22;29738;51.234;5.484;2023-04-03T16:42:28;8.70;95.40
44069;DHT22;29738;51.234;5.484;2023-04-03T16:44:54;8.60;95.60
44069;DHT22;29738;51.234;5.484;2023-04-03T16:47:20;8.70;96.10
44069;DHT22;29738;51.234;5.484;2023-04-03T16:49:45;8.60;95.80
44069;DHT22;29738;51.234;5.484;2023-04-03T16:52:12;8.40;97.20
44069;DHT22;29738;51.234;5.484;2023-04-03T16:54:37;8.50;95.90
44069;DHT22;29738;51.234;5.484;2023-04-03T16:57:03;8.40;96.50
44069;DHT22;29738;51.234;5.484;2023-04-03T16:59:29;8.50;96.50
44069;DHT22;29738;51.234;5.484;2023-04-03T17:01:55;8.50;96.10
44069;DHT22;29738;51.234;5.484;2023-04-03T17:04:20;8.50;96.50
44069;DHT22;29738;51.234;5.484;2023-04-03T17:06:46;8.30;96.20
44069;DHT22;29738;51.234;5.484;2023-04-03T17:09:12;8.30;96.90
44069;DHT22;29738;51.234;5.484;2023-04-03T17:11:38;8.10;96.50
44069;DHT22;29738;51.234;5.484;2023-04-03T17:14:04;8.20;96.80
44069;DHT22;29738;51.234;5.484;2023-04-03T17:16:30;8.10;97.20
44069;DHT22;29738;51.234;5.484;2023-04-03T17:18:57;8.10;96.40